Terminal Aerodrome Forecast
Issued by NWS Pocatello, ID

Home | Current Version | Previous Version | Text Only | Print | Product List | Glossary On
Versions: 1 2 3 4 5 6 7 8 9 10 11 12 13 14 15 16 17 18 19 20 21 22 23 24 25 26 27
446
FTUS45 KPIH 102320
TAFIDA
TAF
KIDA 102320Z 1100/1124 01007KT 6SM BR FEW130 FEW160
     FM110600 01007KT 6SM BR SCT004 BKN025 BKN100
     FM111300 VRB03KT 2SM BR OVC002
     FM111900 VRB03KT 4SM HZ SCT004 BKN110 BKN160=

USA.gov is the U.S. government's official web portal to all federal, state and local government web resources and services.